Time;durP1;ratioP1;P1;durP2;ratioP2;P2;SDS_P1;SDS_P2;PMS_P1;PMS_P2;Temp;Humidity;BMP_temperature;BMP_pressure;BME280_temperature;BME280_humidity;BME280_pressure;Samples;Min_cycle;Max_cycle;Signal;HPM_P1;HPM_P2
2022/12/01 00:01:58;;;;;;;103.40;43.28;;;;;;;;;;5052395;28;20510;-73
2022/12/01 00:04:24;;;;;;;99.47;41.97;;;;;;;;;;5016660;28;20429;-73
2022/12/01 00:06:50;;;;;;;97.28;42.03;;;;;;;;;;5025497;28;20423;-73
2022/12/01 00:12:01;;;;;;;95.45;42.50;;;;;;;;;;5039273;28;20462;-73
2022/12/01 00:14:27;;;;;;;104.47;43.58;;;;;;;;;;5035285;28;20415;-73
2022/12/01 00:16:53;;;;;;;93.97;40.72;;;;;;;;;;5035841;28;20430;-73
2022/12/01 00:19:19;;;;;;;93.05;41.40;;;;;;;;;;5031618;28;20417;-73
2022/12/01 00:21:45;;;;;;;93.03;41.45;;;;;;;;;;5028736;28;20431;-73
2022/12/01 00:24:11;;;;;;;94.63;40.30;;;;;;;;;;5033049;28;20486;-73
2022/12/01 00:26:38;;;;;;;94.37;41.03;;;;;;;;;;5018824;28;20427;-73
2022/12/01 00:29:04;;;;;;;92.72;40.22;;;;;;;;;;5037874;28;20927;-73
2022/12/01 00:31:30;;;;;;;91.87;40.63;;;;;;;;;;5056272;28;20415;-73
2022/12/01 00:33:56;;;;;;;94.70;41.03;;;;;;;;;;5032888;28;20441;-73
2022/12/01 00:36:22;;;;;;;89.72;40.85;;;;;;;;;;5010972;28;20429;-73
2022/12/01 00:38:51;;;;;;;83.72;39.38;;;;;;;;;;5030835;28;20432;-72
2022/12/01 00:41:17;;;;;;;91.97;41.85;;;;;;;;;;5029023;28;20950;-73
2022/12/01 00:43:43;;;;;;;93.63;40.85;;;;;;;;;;5047076;28;20427;-73
2022/12/01 00:46:09;;;;;;;86.38;39.95;;;;;;;;;;5016277;28;20427;-73
2022/12/01 00:48:36;;;;;;;88.05;39.92;;;;;;;;;;5016230;28;20969;-74
2022/12/01 00:51:02;;;;;;;86.05;39.35;;;;;;;;;;5030857;28;20787;-74
2022/12/01 00:53:28;;;;;;;94.15;41.47;;;;;;;;;;5015412;28;20423;-74
2022/12/01 00:55:54;;;;;;;90.10;40.95;;;;;;;;;;5017204;28;20473;-74
2022/12/01 00:58:21;;;;;;;84.90;39.63;;;;;;;;;;5026947;28;20429;-74
2022/12/01 01:00:47;;;;;;;91.32;42.75;;;;;;;;;;5015287;28;20431;-74
2022/12/01 01:03:13;;;;;;;89.22;40.80;;;;;;;;;;4990208;28;20429;-74
2022/12/01 01:05:40;;;;;;;90.72;40.50;;;;;;;;;;5018995;28;20430;-74
2022/12/01 01:08:09;;;;;;;86.43;40.30;;;;;;;;;;5033062;28;20431;-74
2022/12/01 01:10:39;;;;;;;92.43;42.38;;;;;;;;;;5014120;28;20958;-74
2022/12/01 01:13:05;;;;;;;87.88;39.92;;;;;;;;;;5031604;28;20802;-74
2022/12/01 01:15:31;;;;;;;89.80;39.43;;;;;;;;;;5014852;28;20422;-74
2022/12/01 01:17:57;;;;;;;86.28;40.35;;;;;;;;;;5031447;28;20422;-74
2022/12/01 01:20:24;;;;;;;93.68;40.83;;;;;;;;;;5016160;28;20434;-74
2022/12/01 01:22:50;;;;;;;86.05;40.38;;;;;;;;;;5014221;28;20458;-74
2022/12/01 01:25:16;;;;;;;86.25;40.45;;;;;;;;;;5029699;28;20930;-74
2022/12/01 01:27:42;;;;;;;91.97;41.20;;;;;;;;;;5010799;28;20426;-74
2022/12/01 01:30:08;;;;;;;86.60;40.13;;;;;;;;;;5014671;28;20405;-74
2022/12/01 01:32:34;;;;;;;89.83;40.20;;;;;;;;;;5032461;28;20423;-74
2022/12/01 01:35:00;;;;;;;88.45;39.33;;;;;;;;;;5018601;28;20429;-74
2022/12/01 01:37:26;;;;;;;86.40;39.78;;;;;;;;;;5030615;28;20770;-74
2022/12/01 01:39:53;;;;;;;87.30;40.17;;;;;;;;;;5022658;28;20778;-74
2022/12/01 01:42:19;;;;;;;83.82;40.08;;;;;;;;;;5012917;28;20435;-73
2022/12/01 01:44:45;;;;;;;83.03;40.40;;;;;;;;;;5015519;28;20786;-74
2022/12/01 01:47:12;;;;;;;87.63;40.43;;;;;;;;;;5032024;28;20799;-74
2022/12/01 01:49:39;;;;;;;91.32;41.05;;;;;;;;;;5032585;28;20407;-74
2022/12/01 01:52:05;;;;;;;91.43;41.13;;;;;;;;;;5032007;28;20906;-74
2022/12/01 01:54:34;;;;;;;93.72;43.10;;;;;;;;;;5029252;28;20423;-74
2022/12/01 01:57:01;;;;;;;100.57;43.42;;;;;;;;;;5015795;28;20424;-74
2022/12/01 01:59:32;;;;;;;93.00;43.00;;;;;;;;;;4998923;28;20417;-74
2022/12/01 02:02:04;;;;;;;94.40;41.75;;;;;;;;;;5013051;28;20458;-74
2022/12/01 02:04:32;;;;;;;94.10;41.53;;;;;;;;;;4998435;28;20427;-74
2022/12/01 02:06:58;;;;;;;94.27;42.27;;;;;;;;;;5013976;28;20506;-74
2022/12/01 02:09:24;;;;;;;87.95;41.75;;;;;;;;;;5011507;28;20427;-74
2022/12/01 02:11:56;;;;;;;96.35;41.83;;;;;;;;;;4997221;28;20796;-74
2022/12/01 02:14:25;;;;;;;94.53;43.15;;;;;;;;;;5014676;28;20453;-74
2022/12/01 02:17:04;;;;;;;95.43;42.70;;;;;;;;;;5030121;28;20427;-74
2022/12/01 02:19:36;;;;;;;99.85;42.85;;;;;;;;;;5030191;28;20787;-74
2022/12/01 02:22:05;;;;;;;98.77;43.03;;;;;;;;;;5029214;28;20522;-74
2022/12/01 02:24:34;;;;;;;101.60;43.55;;;;;;;;;;5015694;28;20473;-74
2022/12/01 02:27:00;;;;;;;93.20;42.50;;;;;;;;;;5018447;28;20513;-74
2022/12/01 02:30:03;;;;;;;97.30;43.30;;;6.50;99.90;;;;;;5013573;28;20462;-74
2022/12/01 02:32:42;;;;;;;99.55;42.58;;;;;;;;;;5041257;28;20986;-74
2022/12/01 02:35:15;;;;;;;97.63;43.57;;;;;;;;;;5050930;28;20423;-74
2022/12/01 02:37:41;;;;;;;99.10;44.05;;;;;;;;;;5037351;28;20432;-74
2022/12/01 02:40:19;;;;;;;101.07;43.30;;;;;;;;;;5052182;28;20415;-74
2022/12/01 02:42:48;;;;;;;97.22;43.83;;;;;;;;;;5035642;28;20558;-74
2022/12/01 02:45:18;;;;;;;96.77;43.50;;;;;;;;;;5051287;28;20427;-74
2022/12/01 02:47:44;;;;;;;103.53;44.25;;;;;;;;;;5036399;28;20486;-73
2022/12/01 02:50:11;;;;;;;94.78;42.30;;;;;;;;;;5020950;28;20475;-73
2022/12/01 02:52:39;;;;;;;99.93;43.78;;;;;;;;;;5054333;28;20486;-73
2022/12/01 02:55:05;;;;;;;104.03;44.90;;;;;;;;;;5047143;28;20890;-73
2022/12/01 02:57:31;;;;;;;97.28;43.53;;;;;;;;;;5051012;28;20427;-73
2022/12/01 02:59:58;;;;;;;101.15;43.97;;;;;;;;;;5052872;28;20415;-73
2022/12/01 03:02:32;;;;;;;103.15;44.30;;;;;;;;;;5052064;28;20898;-73
2022/12/01 03:05:17;;;;;;;98.03;43.42;;;;;;;;;;5054514;28;20503;-73
2022/12/01 03:07:43;;;;;;;100.15;44.30;;;;;;;;;;5052046;28;20439;-73
2022/12/01 03:10:12;;;;;;;107.70;44.72;;;;;;;;;;5029737;28;20423;-74
2022/12/01 03:12:46;;;;;;;99.70;43.70;;;;;;;;;;5036129;28;20424;-73
2022/12/01 03:15:19;;;;;;;102.35;44.08;;;;;;;;;;5052627;28;20434;-73
2022/12/01 03:18:07;;;;;;;101.27;44.23;;;;;;;;;;5069561;28;20426;-73
2022/12/01 03:20:39;;;;;;;97.57;44.50;;;;;;;;;;5051620;28;20438;-73
2022/12/01 03:23:08;;;;;;;105.20;45.63;;;;;;;;;;5036331;28;20449;-73
2022/12/01 03:25:36;;;;;;;98.85;44.20;;;;;;;;;;5052352;28;21041;-74
2022/12/01 03:28:04;;;;;;;105.43;45.55;;;;;;;;;;5051422;28;20420;-74
2022/12/01 03:30:31;;;;;;;108.30;44.57;;;;;;;;;;5023565;28;20475;-74
2022/12/01 03:33:01;;;;;;;106.40;45.78;;;;;;;;;;5034002;28;20913;-74
2022/12/01 03:35:33;;;;;;;105.78;45.22;;;;;;;;;;5026932;28;20424;-74
2022/12/01 03:38:05;;;;;;;106.30;45.60;;;;;;;;;;5052740;28;20419;-72
2022/12/01 03:40:32;;;;;;;105.05;46.03;;;;;;;;;;5052119;28;20451;-72
2022/12/01 03:43:01;;;;;;;103.32;46.03;;;;;;;;;;5015790;28;20478;-73
2022/12/01 03:45:31;;;;;;;101.63;44.63;;;;;;;;;;5035212;28;20406;-73
2022/12/01 03:47:57;;;;;;;107.57;47.10;;;;;;;;;;5034984;28;20423;-73
2022/12/01 03:50:27;;;;;;;113.07;47.45;;;;;;;;;;5033432;28;20474;-73
2022/12/01 03:52:56;;;;;;;108.78;46.67;;;;;;;;;;5040180;28;20420;-73
2022/12/01 03:55:24;;;;;;;112.90;47.67;;;;;;;;;;5045016;28;20502;-73
2022/12/01 03:57:57;;;;;;;108.93;45.92;;;;;;;;;;5052498;28;20922;-74
2022/12/01 04:00:24;;;;;;;111.03;46.65;;;;;;;;;;5050775;28;20481;-73
2022/12/01 04:02:57;;;;;;;105.45;46.63;;;;;;;;;;5051852;28;20428;-73
2022/12/01 04:05:23;;;;;;;109.70;46.40;;;;;;;;;;5050769;28;20424;-73
2022/12/01 04:07:49;;;;;;;112.53;47.33;;;;;;;;;;5050949;28;20423;-73
2022/12/01 04:10:15;;;;;;;108.90;45.67;;;;;;;;;;5051378;28;20416;-73
2022/12/01 04:12:41;;;;;;;111.47;46.47;;;;;;;;;;5039980;28;20433;-73
2022/12/01 04:15:11;;;;;;;110.18;47.10;;;;;;;;;;5016459;28;20908;-73
2022/12/01 04:17:37;;;;;;;107.97;47.50;;;;;;;;;;5040761;28;20465;-74
2022/12/01 04:20:05;;;;;;;113.13;46.97;;;;;;;;;;5043186;28;20423;-74
2022/12/01 04:22:32;;;;;;;104.50;45.10;;;;;;;;;;5052176;28;20431;-74
2022/12/01 04:24:58;;;;;;;113.47;47.17;;;;;;;;;;5036138;28;20437;-74
2022/12/01 04:27:24;;;;;;;112.20;47.20;;;;;;;;;;5030859;28;21045;-73
2022/12/01 04:29:50;;;;;;;108.28;46.53;;;;;;;;;;5051474;28;20764;-73
2022/12/01 04:32:16;;;;;;;111.27;46.57;;;;;;;;;;5051735;28;20446;-73
2022/12/01 04:34:42;;;;;;;107.80;47.00;;;;;;;;;;5051395;28;20427;-73
2022/12/01 04:37:08;;;;;;;107.90;46.75;;;;;;;;;;5033338;28;20957;-73
2022/12/01 04:39:35;;;;;;;112.40;47.08;;;;;;;;;;5052495;28;20764;-73
2022/12/01 04:42:02;;;;;;;118.45;47.75;;;;;;;;;;5036208;28;20756;-73
2022/12/01 04:44:28;;;;;;;111.32;47.38;;;;;;;;;;5052138;28;20406;-74
2022/12/01 04:46:54;;;;;;;112.57;46.78;;;;;;;;;;5036570;28;20453;-74
2022/12/01 04:49:21;;;;;;;111.75;46.80;;;;;;;;;;5050332;28;20912;-74
2022/12/01 04:51:47;;;;;;;107.22;45.42;;;;;;;;;;5048824;28;20420;-74
2022/12/01 04:54:14;;;;;;;112.38;45.83;;;;;;;;;;5052133;28;20419;-73
2022/12/01 04:56:40;;;;;;;109.17;44.83;;;;;;;;;;5035799;28;20502;-74
2022/12/01 04:59:06;;;;;;;106.10;46.80;;;;;;;;;;5051196;28;20477;-74
2022/12/01 05:01:32;;;;;;;108.13;45.47;;;;;;;;;;5035486;28;20522;-73
2022/12/01 05:03:58;;;;;;;110.13;45.42;;;;;;;;;;5032956;28;20427;-74
2022/12/01 05:06:26;;;;;;;107.32;45.45;;;;;;;;;;5052864;28;20404;-74
2022/12/01 05:08:54;;;;;;;113.05;46.80;;;;;;;;;;5052630;28;20423;-74
2022/12/01 05:11:20;;;;;;;109.40;45.63;;;;;;;;;;5051936;28;20419;-74
2022/12/01 05:13:47;;;;;;;108.57;46.97;;;;;;;;;;5034500;28;20451;-74
2022/12/01 05:16:14;;;;;;;107.03;44.90;;;;;;;;;;5052254;28;20416;-73
2022/12/01 05:18:41;;;;;;;103.90;44.72;;;;;;;;;;5053147;28;20423;-72
2022/12/01 05:21:08;;;;;;;106.80;44.53;;;;;;;;;;5055799;28;20426;-73
2022/12/01 05:23:35;;;;;;;114.73;46.70;;;;;;;;;;5031930;28;20475;-73
2022/12/01 05:26:02;;;;;;;113.50;45.17;;;;;;;;;;5040440;28;22203;-74
2022/12/01 05:28:28;;;;;;;110.18;45.35;;;;;;;;;;5049241;28;20437;-74
2022/12/01 05:30:55;;;;;;;109.13;44.92;;;;;;;;;;5074088;28;20781;-73
2022/12/01 05:33:25;;;;;;;106.25;44.30;;;;;;;;;;5042572;28;20421;-74
2022/12/01 05:35:51;;;;;;;110.07;44.53;;;;;;;;;;5033004;28;20423;-74
2022/12/01 05:38:18;;;;;;;115.05;46.15;;;;;;;;;;5032591;28;20435;-73
2022/12/01 05:40:49;;;;;;;109.35;46.20;;;;;;;;;;5020483;28;20425;-74
2022/12/01 05:43:15;;;;;;;106.70;45.50;;;;;;;;;;5030479;28;20786;-73
2022/12/01 05:45:41;;;;;;;111.85;45.70;;;;;;;;;;5030725;28;20534;-74
2022/12/01 05:48:08;;;;;;;106.73;46.67;;;;;;;;;;5028735;28;20996;-73
2022/12/01 05:50:37;;;;;;;111.90;45.30;;;;;;;;;;4980466;28;20417;-73
2022/12/01 05:53:03;;;;;;;115.30;46.65;;;;;;;;;;5008838;28;20431;-73
2022/12/01 05:55:29;;;;;;;111.27;45.37;;;;;;;;;;5005614;28;20447;-74
2022/12/01 05:57:55;;;;;;;119.28;47.08;;;;;;;;;;5031639;28;20422;-73
2022/12/01 06:00:22;;;;;;;117.25;46.97;;;;;;;;;;5013222;28;20430;-74
2022/12/01 06:02:48;;;;;;;109.57;45.75;;;;;;;;;;5026347;28;20434;-74
2022/12/01 06:05:14;;;;;;;119.32;48.13;;;;;;;;;;5030763;28;20422;-74
2022/12/01 06:07:40;;;;;;;118.33;46.17;;;;;;;;;;5031238;28;20887;-74
2022/12/01 06:10:07;;;;;;;122.18;47.05;;;;;;;;;;5031166;28;20419;-74
2022/12/01 06:12:33;;;;;;;120.80;47.67;;;;;;;;;;5012990;28;20423;-74
2022/12/01 06:14:59;;;;;;;124.32;48.53;;;;;;;;;;5029731;28;20427;-74
2022/12/01 06:17:25;;;;;;;124.65;48.22;;;;;;;;;;5028851;28;20434;-73
2022/12/01 06:19:51;;;;;;;129.05;48.38;;;;;;;;;;5022261;28;20454;-74
2022/12/01 06:22:17;;;;;;;126.97;47.57;;;;;;;;;;5030462;28;20415;-75
2022/12/01 06:24:43;;;;;;;120.22;45.72;;;;;;;;;;5030197;28;20493;-75
2022/12/01 06:27:09;;;;;;;125.50;46.50;;;;;;;;;;5009510;28;20434;-74
2022/12/01 06:29:35;;;;;;;127.22;48.08;;;;;;;;;;5027273;28;20418;-74
2022/12/01 06:32:01;;;;;;;112.80;44.70;;;;;;;;;;5013364;28;20771;-75
2022/12/01 06:34:27;;;;;;;116.22;45.30;;;;;;;;;;5033315;28;20420;-75
2022/12/01 06:36:53;;;;;;;114.15;45.55;;;;;;;;;;5018122;28;20951;-75
2022/12/01 06:39:19;;;;;;;120.97;45.55;;;;;;;;;;5022724;28;20429;-76
2022/12/01 06:41:46;;;;;;;123.00;46.65;;;;;;;;;;5002989;28;20760;-75
2022/12/01 06:44:13;;;;;;;113.68;44.92;;;;;;;;;;5050711;28;20431;-76
2022/12/01 06:46:39;;;;;;;117.70;42.90;;;;;;;;;;5053704;28;20453;-75
2022/12/01 06:49:05;;;;;;;125.40;45.30;;;;;;;;;;5035270;28;20431;-75
2022/12/01 06:51:33;;;;;;;130.68;46.80;;;;;;;;;;5055381;28;20439;-74
2022/12/01 06:53:59;;;;;;;113.25;43.88;;;;;;;;;;5052781;28;20806;-74
2022/12/01 06:56:25;;;;;;;171.27;46.55;;;;;;;;;;5049213;28;20424;-76
2022/12/01 06:58:52;;;;;;;123.07;44.83;;;;;;;;;;5032254;28;20763;-75
2022/12/01 07:01:18;;;;;;;147.90;45.80;;;;;;;;;;5053905;28;20463;-76
2022/12/01 07:03:48;;;;;;;213.67;45.70;;;;;;;;;;5047649;28;20811;-76
2022/12/01 07:06:15;;;;;;;175.63;46.83;;;;;;;;;;5065529;28;20428;-76
2022/12/01 07:08:41;;;;;;;112.80;42.03;;;;;;;;;;5052632;28;20443;-76
2022/12/01 07:11:09;;;;;;;202.32;45.47;;;;;;;;;;5021391;28;20417;-76
2022/12/01 07:13:35;;;;;;;344.17;51.00;;;;;;;;;;5047228;28;20844;-76
2022/12/01 07:16:02;;;;;;;297.50;50.83;;;;;;;;;;5035737;28;20423;-74
2022/12/01 07:18:28;;;;;;;560.50;59.65;;;;;;;;;;5035327;28;20494;-75
2022/12/01 07:20:59;;;;;;;424.45;52.13;;;;;;;;;;5051007;28;20436;-75
2022/12/01 07:23:25;;;;;;;175.50;42.97;;;;;;;;;;5030200;28;20431;-76
2022/12/01 07:25:58;;;;;;;358.45;48.47;;;;;;;;;;5033546;28;20429;-76
2022/12/01 07:28:24;;;;;;;517.27;54.47;;;;;;;;;;5049909;28;20454;-76
2022/12/01 07:30:50;;;;;;;362.05;45.40;;;;;;;;;;5039664;28;20429;-76
2022/12/01 07:33:16;;;;;;;292.60;43.72;;;;;;;;;;5046573;28;20411;-75
2022/12/01 07:35:42;;;;;;;627.95;55.33;;;;;;;;;;5030792;28;20427;-74
2022/12/01 07:38:08;;;;;;;359.27;46.58;;;;;;;;;;5026628;28;21079;-74
2022/12/01 07:40:34;;;;;;;650.78;56.97;;;;;;;;;;5036139;28;20633;-74
2022/12/01 07:43:00;;;;;;;378.75;44.97;;;;;;;;;;5040554;28;20431;-73
2022/12/01 07:45:26;;;;;;;425.63;46.80;;;;;;;;;;5045178;28;20933;-74
2022/12/01 07:47:53;;;;;;;477.70;44.08;;;;;;;;;;5042778;28;20466;-74
2022/12/01 07:50:19;;;;;;;418.08;43.60;;;;;;;;;;5029355;28;20477;-74
2022/12/01 07:52:49;;;;;;;393.92;42.30;;;;;;;;;;5026278;28;20447;-73
2022/12/01 07:55:15;;;;;;;478.17;45.38;;;;;;;;;;5044051;28;20459;-74
2022/12/01 07:57:41;;;;;;;513.20;47.08;;;;;;;;;;5032202;28;20791;-74
2022/12/01 08:00:08;;;;;;;242.00;37.65;;;;;;;;;;5046883;28;20415;-75
2022/12/01 08:02:34;;;;;;;350.35;41.22;;;;;;;;;;5050045;28;20518;-74
2022/12/01 08:05:00;;;;;;;388.10;42.75;;;;;;;;;;5023445;28;20434;-75
2022/12/01 08:07:26;;;;;;;214.20;35.28;;;;;;;;;;5010949;28;20895;-74
2022/12/01 08:09:52;;;;;;;259.80;35.45;;;;;;;;;;5025203;28;20473;-75
2022/12/01 08:12:18;;;;;;;111.15;31.17;;;;;;;;;;5025295;28;20407;-75
2022/12/01 08:14:44;;;;;;;97.78;30.95;;;;;;;;;;5042086;28;20498;-73
2022/12/01 08:17:10;;;;;;;55.38;28.63;;;;;;;;;;5030222;28;20469;-73
2022/12/01 08:19:36;;;;;;;60.35;30.20;;;;;;;;;;5015341;28;20443;-73
2022/12/01 08:22:03;;;;;;;64.70;31.30;;;;;;;;;;5019495;28;20409;-74
2022/12/01 08:24:32;;;;;;;60.85;30.02;;;;;;;;;;5053087;28;20422;-74
2022/12/01 08:26:58;;;;;;;67.32;31.35;;;;;;;;;;5039556;28;20417;-74
2022/12/01 08:29:24;;;;;;;66.70;30.98;;;;;;;;;;5044370;28;20803;-74
2022/12/01 08:31:50;;;;;;;60.35;29.80;;;;;;;;;;5047550;28;20848;-74
2022/12/01 08:34:17;;;;;;;60.23;30.03;;;;;;;;;;5038744;28;20429;-74
2022/12/01 08:36:43;;;;;;;57.63;27.88;;;;;;;;;;5049625;28;20453;-73
2022/12/01 08:39:09;;;;;;;53.80;28.02;;;;;;;;;;5045301;28;20466;-73
2022/12/01 08:41:35;;;;;;;56.85;27.77;;;;;;;;;;5037377;28;20550;-75
2022/12/01 08:44:01;;;;;;;54.47;27.15;;;;;;;;;;5045989;28;20423;-75
2022/12/01 08:46:30;;;;;;;55.08;27.85;;;;;;;;;;5025467;28;20479;-74
2022/12/01 08:48:56;;;;;;;55.08;27.33;;;;;;;;;;5055742;28;20573;-74
2022/12/01 08:51:23;;;;;;;52.05;26.77;;;;;;;;;;5026459;28;20466;-74
2022/12/01 08:53:49;;;;;;;57.73;28.20;;;;;;;;;;5055055;28;20477;-74
2022/12/01 08:56:18;;;;;;;53.33;26.83;;;;;;;;;;5050683;28;20928;-74
2022/12/01 08:58:44;;;;;;;55.22;27.20;;;;;;;;;;5038145;28;20431;-74
2022/12/01 09:01:14;;;;;;;52.03;26.95;;;;;;;;;;5054208;28;20434;-75
2022/12/01 09:03:40;;;;;;;52.70;26.40;;;;;;;;;;5039244;28;20415;-74
2022/12/01 09:06:11;;;;;;;51.00;26.00;;;;;;;;;;5074539;28;20395;-75
2022/12/01 09:08:37;;;;;;;46.30;24.20;;;;;;;;;;5055492;28;20419;-74
2022/12/01 09:11:05;;;;;;;46.63;24.13;;;;;;;;;;5051170;28;20542;-75
2022/12/01 09:13:32;;;;;;;46.67;25.08;;;;;;;;;;5026341;28;20838;-75
2022/12/01 09:16:03;;;;;;;46.10;24.37;;;;;;;;;;5050743;28;20469;-75
2022/12/01 09:18:29;;;;;;;42.90;23.90;;;;;;;;;;5032814;28;20459;-74
2022/12/01 09:20:55;;;;;;;44.17;24.27;;;;;;;;;;5036278;28;20426;-74
2022/12/01 09:23:21;;;;;;;37.97;22.17;;;;;;;;;;5046663;28;20511;-74
2022/12/01 09:25:48;;;;;;;39.13;22.35;;;;;;;;;;5048035;28;20477;-73
2022/12/01 09:28:14;;;;;;;40.88;22.02;;;;;;;;;;5051634;28;20432;-73
2022/12/01 09:30:41;;;;;;;36.63;21.27;;;;;;;;;;5037912;28;20399;-74
2022/12/01 09:33:07;;;;;;;39.92;21.90;;;;;;;;;;5051295;28;20419;-74
2022/12/01 09:35:33;;;;;;;38.75;22.27;;;;;;;;;;5038900;28;20767;-74
2022/12/01 09:37:59;;;;;;;35.88;21.05;;;;;;;;;;5050475;28;20430;-75
2022/12/01 09:40:28;;;;;;;35.33;20.42;;;;;;;;;;5033224;28;20455;-75
2022/12/01 09:42:54;;;;;;;33.78;18.90;;;;;;;;;;5069280;28;20423;-76
2022/12/01 09:45:28;;;;;;;29.50;18.95;;;;;;;;;;5043745;28;20445;-76
2022/12/01 09:47:56;;;;;;;32.88;19.05;;;;;;;;;;5047368;28;20430;-76
2022/12/01 09:50:24;;;;;;;31.92;19.10;;;;;;;;;;5048977;28;20415;-74
2022/12/01 09:52:59;;;;;;;34.17;18.40;;;;;;;;;;5051529;28;20449;-75
2022/12/01 09:55:25;;;;;;;29.98;19.50;;;;;;;;;;5052259;28;20427;-72
2022/12/01 09:57:53;;;;;;;33.40;18.65;;;;;;;;;;5035696;28;20506;-75
2022/12/01 10:00:23;;;;;;;33.05;18.70;;;;;;;;;;5068130;28;20415;-75
2022/12/01 10:03:19;;;;;;;36.33;18.88;;;;;;;;;;5047185;28;20808;-73
2022/12/01 10:05:47;;;;;;;32.78;19.83;;;;;;;;;;5028732;28;20502;-74
2022/12/01 10:08:15;;;;;;;32.08;19.95;;;;;;;;;;5044290;28;20428;-74
2022/12/01 10:10:48;;;;;;;30.75;19.95;;;;;;;;;;5045997;28;20502;-75
2022/12/01 10:13:19;;;;;;;31.88;19.67;;;;;;;;;;5033242;28;20419;-74
2022/12/01 10:15:51;;;;;;;33.65;20.48;;;;;;;;;;5029751;28;20415;-75
2022/12/01 10:18:27;;;;;;;31.40;20.40;;;;;;;;;;5043809;28;20431;-74
2022/12/01 10:21:01;;;;;;;35.83;20.55;;;;;;;;;;5048431;28;20923;-74
2022/12/01 10:23:46;;;;;;;33.47;21.10;;;;;;;;;;5052988;28;20484;-75
2022/12/01 10:26:29;;;;;;;32.17;21.05;;;;;;;;;;5047393;28;20519;-74
2022/12/01 10:29:02;;;;;;;33.47;21.07;;;;;;;;;;5052315;28;20505;-75
2022/12/01 10:31:28;;;;;;;34.65;21.55;;;;;;;;;;5022989;28;20452;-75
2022/12/01 10:34:06;;;;;;;33.50;22.80;;;;;;;;;;5047864;28;20759;-73
2022/12/01 10:36:33;;;;;;;35.72;22.75;;;;;;;;;;5036260;28;20459;-74
2022/12/01 10:39:00;;;;;;;34.85;21.58;;;;;;;;;;5013808;28;20418;-75
2022/12/01 10:41:28;;;;;;;33.90;21.67;;;;;;;;;;5027966;28;20941;-74
2022/12/01 10:43:59;;;;;;;32.58;20.33;;;;;;;;;;5025904;28;20956;-75
2022/12/01 10:46:29;;;;;;;33.00;20.27;;;;;;;;;;5004805;28;20430;-75
2022/12/01 10:48:59;;;;;;;34.53;20.48;;;;;;;;;;5003782;28;20512;-74
2022/12/01 10:51:26;;;;;;;33.10;21.07;;;;;;;;;;5021001;28;20430;-75
2022/12/01 10:53:59;;;;;;;34.08;22.23;;;;;;;;;;5026641;28;20442;-74
2022/12/01 10:56:26;;;;;;;38.28;23.60;;;;;;;;;;5009571;28;20446;-75
2022/12/01 10:59:04;;;;;;;40.33;25.70;;;;;;;;;;5027537;28;20509;-74
2022/12/01 11:01:34;;;;;;;41.00;28.00;;;;;;;;;;5026297;28;20434;-75
2022/12/01 11:04:03;;;;;;;44.15;29.45;;;;;;;;;;5023445;28;20461;-76
2022/12/01 11:06:30;;;;;;;46.40;32.13;;;;;;;;;;5011518;28;20431;-76
2022/12/01 11:08:58;;;;;;;47.13;30.25;;;;;;;;;;5014367;28;20426;-76
2022/12/01 11:11:25;;;;;;;37.88;23.73;;;;;;;;;;5011366;28;20492;-75
2022/12/01 11:13:52;;;;;;;39.28;23.88;;;;;;;;;;5029992;28;20434;-76
2022/12/01 11:16:37;;;;;;;39.17;24.30;;;;;;;;;;5027472;28;20953;-76
2022/12/01 11:19:26;;;;;;;36.30;23.80;;;;;;;;;;5014218;28;20511;-75
2022/12/01 11:21:55;;;;;;;36.40;24.23;;;;;;;;;;5028438;28;20465;-75
2022/12/01 11:24:25;;;;;;;41.67;26.63;;;;;;;;;;5008285;28;20505;-75
2022/12/01 11:26:51;;;;;;;38.95;25.30;;;;;;;;;;5007656;28;20427;-75
2022/12/01 11:29:36;;;;;;;40.22;24.85;;;;;;;;;;5015290;28;20423;-76
2022/12/01 11:32:23;;;;;;;34.08;22.30;;;;;;;;;;5027259;28;20422;-77
2022/12/01 11:34:52;;;;;;;36.38;21.95;;;;;;;;;;5028266;28;20478;-74
2022/12/01 11:37:20;;;;;;;37.72;22.90;;;;;;;;;;5046348;28;20425;-75
2022/12/01 11:39:47;;;;;;;41.55;23.95;;;;;;;;;;5032482;28;20467;-75
2022/12/01 11:42:13;;;;;;;38.75;24.20;;;;;;;;;;5047321;28;20428;-74
2022/12/01 11:44:40;;;;;;;41.80;24.63;;;;;;;;;;5048828;28;20443;-75
2022/12/01 11:47:13;;;;;;;43.33;24.67;;;;;;;;;;5030323;28;20475;-74
2022/12/01 11:49:40;;;;;;;40.90;24.10;;;;;;;;;;5047063;28;20455;-75
2022/12/01 11:52:26;;;;;;;39.42;23.52;;;;;;;;;;5047443;28;20421;-76
2022/12/01 11:55:01;;;;;;;37.47;24.05;;;7.80;99.90;;;;;;5026411;28;20413;-75
2022/12/01 11:57:28;;;;;;;37.88;23.10;;;;;;;;;;5048672;28;20425;-75
2022/12/01 11:59:54;;;;;;;37.90;23.38;;;;;;;;;;5047794;28;20918;-74
2022/12/01 12:02:20;;;;;;;35.70;23.13;;;;;;;;;;5026349;28;20426;-74
2022/12/01 12:05:13;;;;;;;36.08;23.42;;;;;;;;;;5043884;28;20421;-74
2022/12/01 12:07:46;;;;;;;37.33;23.00;;;;;;;;;;5005288;28;20440;-74
2022/12/01 12:10:23;;;;;;;37.53;22.63;;;;;;;;;;5046635;28;20920;-74
2022/12/01 12:12:49;;;;;;;35.15;22.15;;;;;;;;;;5047260;28;20424;-74
2022/12/01 12:15:21;;;;;;;36.90;23.37;;;;;;;;;;5044766;28;20423;-72
2022/12/01 12:18:02;;;;;;;41.55;25.42;;;;;;;;;;5039661;28;20429;-71
2022/12/01 12:20:45;;;;;;;38.70;23.77;;;;;;;;;;5043893;28;20422;-75
2022/12/01 12:23:25;;;;;;;37.25;23.25;;;;;;;;;;5041445;28;20420;-72
2022/12/01 12:25:55;;;;;;;38.42;23.90;;;;;;;;;;5051871;28;20491;-73
2022/12/01 12:28:24;;;;;;;38.57;23.77;;;;;;;;;;5035142;28;20807;-74
2022/12/01 12:30:53;;;;;;;36.47;23.80;;;;;;;;;;5048224;28;20424;-72
2022/12/01 12:33:19;;;;;;;38.60;24.52;;;;;;;;;;5030533;28;20801;-73
2022/12/01 12:35:49;;;;;;;38.00;23.15;;;;;;;;;;5025270;28;20425;-74
2022/12/01 12:38:24;;;;;;;38.13;23.97;;;;;;;;;;5033128;28;20425;-75
2022/12/01 12:40:55;;;;;;;39.65;24.63;;;;;;;;;;5026483;28;20503;-74
2022/12/01 12:43:29;;;;;;;40.20;24.35;;;;;;;;;;5048307;28;20423;-72
2022/12/01 12:45:55;;;;;;;42.55;25.35;;;;;;;;;;5051154;28;20425;-74
2022/12/01 12:49:00;;;;;;;41.15;26.00;;;7.80;99.90;;;;;;5025953;28;20425;-73
2022/12/01 12:51:29;;;;;;;41.67;24.48;;;;;;;;;;5047405;28;20419;-74
2022/12/01 12:54:28;;;;;;;43.50;25.17;;;7.70;99.90;;;;;;5046359;28;20421;-74
2022/12/01 12:56:57;;;;;;;43.08;25.45;;;;;;;;;;5050168;28;20487;-74
2022/12/01 12:59:37;;;;;;;42.25;24.90;;;;;;;;;;5049358;28;20421;-74
2022/12/01 13:02:10;;;;;;;44.50;25.05;;;;;;;;;;5043835;28;20460;-74
2022/12/01 13:04:43;;;;;;;44.80;25.57;;;;;;;;;;5041925;28;20423;-76
2022/12/01 13:07:15;;;;;;;42.10;24.63;;;;;;;;;;5038773;28;20425;-74
2022/12/01 13:09:43;;;;;;;40.20;25.15;;;;;;;;;;5025630;28;20466;-73
2022/12/01 13:12:14;;;;;;;40.95;25.30;;;;;;;;;;5047276;28;20421;-74
2022/12/01 13:14:40;;;;;;;42.38;25.35;;;;;;;;;;5030380;28;20417;-74
2022/12/01 13:17:14;;;;;;;35.87;21.93;;;;;;;;;;5029967;28;20520;-74
2022/12/01 13:19:42;;;;;;;36.17;22.00;;;;;;;;;;5046859;28;20638;-74
2022/12/01 13:22:10;;;;;;;42.08;28.33;;;;;;;;;;5028210;28;20464;-73
2022/12/01 13:24:36;;;;;;;40.70;25.17;;;;;;;;;;5047241;28;20433;-73
2022/12/01 13:27:23;;;;;;;35.85;23.08;;;;;;;;;;5046139;28;20432;-74
2022/12/01 13:29:50;;;;;;;35.97;22.25;;;;;;;;;;5023542;28;20413;-73
2022/12/01 13:32:36;;;;;;;37.08;22.58;;;;;;;;;;5031633;28;20425;-74
2022/12/01 13:35:05;;;;;;;41.28;24.85;;;;;;;;;;5041095;28;20489;-73
2022/12/01 13:37:32;;;;;;;39.83;24.27;;;;;;;;;;5041127;28;20421;-74
2022/12/01 13:40:17;;;;;;;45.85;27.13;;;;;;;;;;5029078;28;20428;-74
2022/12/01 13:42:51;;;;;;;47.40;29.10;;;;;;;;;;5058377;28;20520;-73
2022/12/01 13:45:18;;;;;;;45.40;28.45;;;;;;;;;;5039481;28;20543;-73
2022/12/01 13:47:47;;;;;;;41.90;25.60;;;;;;;;;;5047347;28;20987;-73
2022/12/01 13:50:41;;;;;;;44.20;25.50;;;;;;;;;;5026016;28;20423;-74
2022/12/01 13:53:24;;;;;;;46.13;25.35;;;;;;;;;;5041598;28;20936;-74
2022/12/01 13:56:02;;;;;;;43.35;26.38;;;;;;;;;;5029480;28;20495;-74
2022/12/01 13:58:31;;;;;;;47.38;27.80;;;;;;;;;;5031065;28;20451;-73
2022/12/01 14:01:16;;;;;;;46.47;27.30;;;;;;;;;;5038464;28;20487;-74
2022/12/01 14:03:51;;;;;;;48.00;28.25;;;;;;;;;;5045781;28;20436;-74
2022/12/01 14:06:49;;;;;;;49.25;28.63;;;;;;;;;;5044186;28;20425;-72
2022/12/01 14:09:23;;;;;;;47.75;27.35;;;;;;;;;;5023576;28;20421;-75
2022/12/01 14:11:56;;;;;;;48.40;28.52;;;;;;;;;;5026615;28;20921;-78
2022/12/01 14:14:24;;;;;;;47.08;27.85;;;;;;;;;;5037014;28;20431;-73
2022/12/01 14:16:55;;;;;;;48.35;27.65;;;;;;;;;;5030724;28;20479;-74
2022/12/01 14:19:28;;;;;;;49.08;27.45;;;;;;;;;;5042781;28;20751;-74
2022/12/01 14:21:54;;;;;;;44.95;27.92;;;;;;;;;;5023247;28;20435;-74
2022/12/01 14:24:34;;;;;;;44.20;26.30;;;;;;;;;;5034357;28;20477;-74
2022/12/01 14:27:00;;;;;;;43.70;26.73;;;;;;;;;;5030045;28;20785;-74